Time;durP1;ratioP1;P1;durP2;ratioP2;P2;SDS_P1;SDS_P2;PMS_P1;PMS_P2;Temp;Humidity;BMP_temperature;BMP_pressure;BME280_temperature;BME280_humidity;BME280_pressure;Samples;Min_cycle;Max_cycle;Signal;HPM_P1;HPM_P2
2022/04/03 00:01:52;;;;;;;8.15;4.07;;;;;;;3.32;48.60;102257.47;5036683;28;20041;-63
2022/04/03 00:04:17;;;;;;;5.40;3.97;;;;;;;3.37;49.27;102255.06;5047181;28;20037;-63
2022/04/03 00:06:43;;;;;;;7.30;4.00;;;;;;;3.33;48.99;102256.44;5049755;28;20094;-63
2022/04/03 00:09:09;;;;;;;5.93;3.80;;;;;;;3.31;48.55;102259.38;5042906;28;20037;-63
2022/04/03 00:11:34;;;;;;;4.38;3.63;;;;;;;3.35;48.60;102258.00;5038844;28;20155;-63
2022/04/03 00:14:00;;;;;;;5.40;3.75;;;;;;;3.34;48.26;102260.88;5051642;28;20772;-63
2022/04/03 00:16:25;;;;;;;6.40;3.58;;;;;;;3.29;49.07;102258.66;5043195;28;20117;-63
2022/04/03 00:19:00;;;;;;;9.02;4.20;;;;;;;3.31;48.70;102255.78;5042001;28;20025;-63
2022/04/03 00:21:26;;;;;;;5.03;3.55;;;;;;;3.28;48.40;102251.47;5041561;28;20032;-63
2022/04/03 00:23:51;;;;;;;7.22;3.80;;;;;;;3.31;48.57;102250.28;5049123;28;20125;-63
2022/04/03 00:26:16;;;;;;;5.45;3.83;;;;;;;3.30;48.79;102252.19;5048490;28;20031;-63
2022/04/03 00:28:42;;;;;;;4.32;3.67;;;;;;;3.28;48.75;102258.84;5051182;28;20021;-63
2022/04/03 00:31:08;;;;;;;5.53;3.90;;;;;;;3.23;49.31;102255.78;5049968;28;20053;-63
2022/04/03 00:33:33;;;;;;;5.00;3.60;;;;;;;3.20;48.93;102254.22;5049637;28;20079;-63
2022/04/03 00:35:58;;;;;;;5.80;3.47;;;;;;;3.15;49.54;102257.47;5041371;28;20033;-63
2022/04/03 00:38:24;;;;;;;5.90;3.70;;;;;;;3.10;49.64;102259.84;5047533;28;20033;-62
2022/04/03 00:40:51;;;;;;;6.88;3.95;;;;;;;3.08;49.70;102256.44;5050629;28;20507;-63
2022/04/03 00:43:16;;;;;;;5.35;3.97;;;;;;;3.02;49.78;102251.59;5048826;28;20467;-63
2022/04/03 00:45:47;;;;;;;6.03;4.35;;;;;;;3.03;49.59;102258.84;5040516;28;20036;-63
2022/04/03 00:48:12;;;;;;;5.13;3.97;;;;;;;3.02;49.22;102257.09;5032435;28;20437;-63
2022/04/03 00:50:38;;;;;;;6.65;4.28;;;;;;;3.03;49.77;102258.84;5050323;28;20104;-63
2022/04/03 00:53:04;;;;;;;10.07;4.35;;;;;;;3.04;49.58;102255.06;5043078;28;20036;-63
2022/04/03 00:55:29;;;;;;;9.77;4.30;;;;;;;3.02;50.03;102256.25;5040344;28;20029;-63
2022/04/03 00:57:57;;;;;;;6.70;4.18;;;;;;;3.00;50.12;102252.81;5042324;28;20056;-63
2022/04/03 01:00:22;;;;;;;6.43;4.22;;;;;;;2.98;49.68;102257.59;5042943;28;20068;-63
2022/04/03 01:02:47;;;;;;;8.05;4.55;;;;;;;3.00;50.12;102259.16;5040225;28;20493;-63
2022/04/03 01:05:13;;;;;;;6.47;4.45;;;;;;;2.94;50.36;102255.19;5036932;28;20368;-63
2022/04/03 01:07:38;;;;;;;6.90;4.25;;;;;;;2.96;50.62;102257.78;5036018;28;20033;-63
2022/04/03 01:10:04;;;;;;;11.02;4.60;;;;;;;2.93;50.24;102249.88;5038489;28;20029;-63
2022/04/03 01:12:29;;;;;;;6.22;4.32;;;;;;;2.90;50.23;102248.31;5036405;28;20060;-63
2022/04/03 01:14:54;;;;;;;6.85;4.45;;;;;;;2.87;49.99;102250.53;5037184;28;20395;-63
2022/04/03 01:17:20;;;;;;;7.72;4.30;;;;;;;2.87;50.52;102253.28;5047250;28;20034;-63
2022/04/03 01:19:45;;;;;;;6.32;4.38;;;;;;;2.83;51.18;102251.91;5048912;28;20043;-63
2022/04/03 01:22:11;;;;;;;4.95;4.00;;;;;;;2.82;50.61;102250.19;5047750;28;20366;-63
2022/04/03 01:24:41;;;;;;;8.50;4.53;;;;;;;2.79;51.23;102256.91;5048695;28;20488;-63
2022/04/03 01:27:07;;;;;;;4.93;4.22;;;;;;;2.77;51.25;102249.84;5046754;28;20040;-63
2022/04/03 01:29:32;;;;;;;6.10;4.28;;;;;;;2.77;51.18;102247.13;5048910;28;20052;-63
2022/04/03 01:32:00;;;;;;;6.28;4.35;;;;;;;2.78;51.38;102251.56;5049494;28;20075;-63
2022/04/03 01:34:25;;;;;;;6.50;4.80;;;;;;;2.72;51.34;102255.00;5045575;28;20041;-63
2022/04/03 01:36:51;;;;;;;8.40;4.65;;;;;;;2.74;51.93;102248.28;5041555;28;20091;-63
2022/04/03 01:39:16;;;;;;;7.45;4.55;;;;;;;2.70;51.04;102253.25;5034224;28;20034;-63
2022/04/03 01:41:43;;;;;;;6.97;4.47;;;;;;;2.63;51.25;102244.00;5046275;28;20032;-62
2022/04/03 01:44:12;;;;;;;8.57;4.80;;;;;;;2.58;51.77;102243.63;5052259;28;20059;-62
2022/04/03 01:46:41;;;;;;;6.72;4.47;;;;;;;2.56;51.95;102244.84;5052068;28;20021;-63
2022/04/03 01:49:08;;;;;;;6.00;4.38;;;;;;;2.52;51.88;102244.31;5051819;28;20448;-63
2022/04/03 01:51:35;;;;;;;6.85;4.63;;;;;;;2.51;51.97;102239.81;5049518;28;20067;-63
2022/04/03 01:54:02;;;;;;;6.75;4.53;;;;;;;2.51;52.24;102245.31;5037870;28;20606;-63
2022/04/03 01:56:27;;;;;;;5.70;4.32;;;;;;;2.48;51.79;102237.44;5038052;28;20083;-63
2022/04/03 01:58:52;;;;;;;13.93;4.70;;;;;;;2.47;52.52;102239.28;5045070;28;20025;-63
2022/04/03 02:01:18;;;;;;;8.43;4.97;;;;;;;2.46;52.21;102239.47;5038887;28;20710;-63
2022/04/03 02:03:45;;;;;;;8.73;5.05;;;;;;;2.47;52.14;102235.72;5041346;28;20403;-63
2022/04/03 02:06:11;;;;;;;8.20;5.28;;;;;;;2.43;51.81;102231.59;5046340;28;20029;-63
2022/04/03 02:08:36;;;;;;;7.97;4.82;;;;;;;2.41;51.99;102239.97;5045666;28;20026;-63
2022/04/03 02:11:01;;;;;;;7.22;4.57;;;;;;;2.38;52.81;102236.72;5033804;28;20488;-62
2022/04/03 02:13:27;;;;;;;8.15;4.35;;;;;;;2.38;52.19;102237.56;5035235;28;20029;-62
2022/04/03 02:15:52;;;;;;;6.30;4.57;;;;;;;2.35;52.30;102232.41;5041729;28;20380;-63
2022/04/03 02:18:17;;;;;;;5.00;4.43;;;;;;;2.31;52.06;102239.25;5038567;28;20024;-63
2022/04/03 02:20:43;;;;;;;9.27;4.55;;;;;;;2.29;52.62;102233.09;5052442;28;20025;-63
2022/04/03 02:23:08;;;;;;;9.18;5.15;;;;;;;2.29;52.38;102235.81;5038645;28;20035;-62
2022/04/03 02:25:34;;;;;;;6.53;4.88;;;;;;;2.33;52.67;102236.34;5044395;28;20037;-63
2022/04/03 02:28:05;;;;;;;8.18;4.50;;;;;;;2.30;52.91;102233.94;5044997;28;20029;-63
2022/04/03 02:30:31;;;;;;;10.90;4.72;;;;;;;2.24;52.58;102232.72;5044868;28;20029;-63
2022/04/03 02:32:56;;;;;;;8.50;4.40;;;;;;;2.27;52.61;102229.63;5036425;28;20536;-62
2022/04/03 02:35:24;;;;;;;7.10;4.85;;;;;;;2.20;53.23;102228.56;5047556;28;20041;-62
2022/04/03 02:37:50;;;;;;;6.68;4.22;;;;;;;2.20;53.60;102231.31;5052028;28;20024;-63
2022/04/03 02:40:19;;;;;;;6.72;4.32;;;;;;;2.16;52.82;102232.66;5047495;28;20025;-63
2022/04/03 02:42:48;;;;;;;10.52;4.60;;;;;;;2.11;53.54;102224.09;5038710;28;20052;-63
2022/04/03 02:45:15;;;;;;;8.68;4.60;;;;;;;2.07;53.31;102226.28;5051857;28;20025;-63
2022/04/03 02:47:56;;;;;;;7.70;4.82;;;;;;;2.08;53.76;102230.75;5049720;28;20128;-63
2022/04/03 02:50:24;;;;;;;8.38;4.72;;;;;;;2.06;53.28;102227.31;5050724;28;20024;-63
2022/04/03 02:52:50;;;;;;;8.25;4.43;;;;;;;2.07;53.73;102234.50;5050500;28;20028;-63
2022/04/03 02:55:17;;;;;;;6.85;5.00;;;;;;;2.02;53.47;102236.88;5048851;28;20111;-63
2022/04/03 02:57:48;;;;;;;5.53;4.82;;;;;;;2.03;53.14;102241.34;5050834;28;20484;-63
2022/04/03 03:00:17;;;;;;;7.65;4.63;;;;;;;2.00;53.64;102238.91;5049221;28;20070;-65
2022/04/03 03:02:44;;;;;;;5.72;4.70;;;;;;;2.02;53.76;102242.38;5037341;28;20040;-63
2022/04/03 03:05:09;;;;;;;5.38;4.25;;;;;;;1.98;53.83;102232.75;5038459;28;20405;-63
2022/04/03 03:07:37;;;;;;;6.25;5.03;;;;;;;2.02;53.93;102236.88;5040857;28;20032;-63
2022/04/03 03:10:09;;;;;;;8.30;4.90;;;;;;;1.96;53.48;102238.41;5047576;28;20536;-63
2022/04/03 03:12:35;;;;;;;6.55;4.93;;;;;;;1.97;53.48;102242.00;5035093;28;20119;-63
2022/04/03 03:15:02;;;;;;;8.43;4.60;;;;;;;1.93;53.96;102240.63;5049562;28;20556;-63
2022/04/03 03:17:27;;;;;;;8.85;4.68;;;;;;;1.90;53.15;102239.06;5047337;28;20116;-63
2022/04/03 03:19:53;;;;;;;10.90;5.55;;;;;;;1.94;53.33;102245.06;5052284;28;20197;-63
2022/04/03 03:22:19;;;;;;;6.93;4.70;;;;;;;1.91;53.80;102243.50;5047760;28;20047;-63
2022/04/03 03:24:47;;;;;;;7.25;4.78;;;;;;;1.85;54.02;102241.44;5053735;28;20025;-65
2022/04/03 03:27:12;;;;;;;5.90;4.47;;;;;;;1.84;54.10;102242.41;5050317;28;20534;-65
2022/04/03 03:29:38;;;;;;;8.07;4.80;;;;;;;1.85;53.95;102248.78;5034528;28;20029;-63
2022/04/03 03:32:04;;;;;;;8.70;4.93;;;;;;;1.81;53.95;102250.97;5050658;28;20051;-63
2022/04/03 03:34:30;;;;;;;8.85;5.13;;;;;;;1.80;53.82;102254.72;5050246;28;20071;-63
2022/04/03 03:36:58;;;;;;;8.10;5.20;;;;;;;1.75;54.30;102251.63;5050058;28;20029;-63
2022/04/03 03:39:25;;;;;;;6.25;5.15;;;;;;;1.76;54.03;102252.47;5049506;28;20125;-63
2022/04/03 03:41:50;;;;;;;7.95;5.05;;;;;;;1.73;54.21;102253.66;5049740;28;20104;-63
2022/04/03 03:44:16;;;;;;;9.38;5.55;;;;;;;1.69;54.06;102249.50;5048942;28;20108;-63
2022/04/03 03:46:41;;;;;;;4.88;4.28;;;;;;;1.67;54.03;102248.81;5038072;28;20036;-62
2022/04/03 03:49:07;;;;;;;7.25;4.93;;;;;;;1.63;54.59;102259.22;5038192;28;20024;-61
2022/04/03 03:51:36;;;;;;;7.65;4.78;;;;;;;1.60;54.51;102254.06;5050082;28;20055;-61
2022/04/03 03:54:02;;;;;;;6.78;5.22;;;;;;;1.59;54.72;102251.50;5051015;28;20032;-62
2022/04/03 03:56:28;;;;;;;6.80;4.75;;;;;;;1.62;54.60;102249.31;5049027;28;20388;-61
2022/04/03 03:58:53;;;;;;;10.70;5.30;;;;;;;1.57;54.88;102248.94;5048236;28;20060;-62
2022/04/03 04:01:20;;;;;;;7.47;4.90;;;;;;;1.52;54.87;102251.28;5050167;28;20053;-62
2022/04/03 04:03:45;;;;;;;6.22;4.80;;;;;;;1.55;54.26;102250.97;5049713;28;20049;-62
2022/04/03 04:06:10;;;;;;;7.97;4.85;;;;;;;1.53;54.43;102252.97;5049516;28;20037;-62
2022/04/03 04:08:35;;;;;;;8.73;5.07;;;;;;;1.55;54.52;102250.97;5049081;28;20078;-62
2022/04/03 04:11:01;;;;;;;8.32;5.25;;;;;;;1.53;54.24;102255.72;5049037;28;20108;-62
2022/04/03 04:13:26;;;;;;;10.63;4.72;;;;;;;1.50;54.70;102253.31;5047756;28;20086;-63
2022/04/03 04:16:01;;;;;;;10.98;5.43;;;;;;;1.48;54.73;102248.00;5050303;28;20041;-63
2022/04/03 04:18:30;;;;;;;9.38;4.95;;;;;;;1.50;54.60;102256.06;5048416;28;20025;-63
2022/04/03 04:20:56;;;;;;;7.78;4.93;;;;;;;1.47;54.22;102253.63;5049395;28;20368;-63
2022/04/03 04:23:21;;;;;;;9.48;5.05;;;;;;;1.51;54.99;102260.50;5049301;28;20032;-63
2022/04/03 04:25:46;;;;;;;9.90;5.43;;;;;;;1.53;54.98;102257.59;5040900;28;20450;-63
2022/04/03 04:28:12;;;;;;;6.15;5.00;;;;;;;1.48;54.41;102258.94;5049592;28;20065;-63
2022/04/03 04:30:38;;;;;;;9.32;5.05;;;;;;;1.41;54.72;102255.13;5049391;28;20174;-63
2022/04/03 04:33:06;;;;;;;7.35;4.88;;;;;;;1.42;55.17;102264.22;5049565;28;20395;-63
2022/04/03 04:35:31;;;;;;;5.85;5.07;;;;;;;1.40;54.62;102258.03;5055822;28;20083;-62
2022/04/03 04:37:57;;;;;;;6.57;5.38;;;;;;;1.42;55.18;102261.47;5054611;28;20041;-63
2022/04/03 04:40:22;;;;;;;7.78;4.80;;;;;;;1.39;54.73;102268.09;5049599;28;20104;-62
2022/04/03 04:42:49;;;;;;;8.65;5.13;;;;;;;1.38;54.87;102271.88;5049540;28;20069;-63
2022/04/03 04:45:15;;;;;;;8.27;5.20;;;;;;;1.36;55.02;102273.03;5043859;28;20081;-62
2022/04/03 04:47:50;;;;;;;11.40;7.90;;;;;;;1.40;55.27;102258.03;5047121;28;20036;-62
2022/04/03 04:50:16;;;;;;;11.82;7.70;;;;;;;1.33;54.83;102263.25;5043876;28;20500;-62
2022/04/03 04:52:42;;;;;;;8.02;6.43;;;;;;;1.30;55.10;102266.34;5044702;28;20065;-62
2022/04/03 04:55:09;;;;;;;7.95;6.07;;;;;;;1.34;54.96;102266.88;5047580;28;20029;-63
2022/04/03 04:57:37;;;;;;;6.40;5.53;;;;;;;1.32;55.46;102267.03;5031137;28;20076;-63
2022/04/03 05:00:09;;;;;;;8.55;5.95;;;;;;;1.35;55.03;102276.78;5048075;28;20037;-62
2022/04/03 05:02:34;;;;;;;9.25;5.95;;;;;;;1.33;55.11;102276.09;5041585;28;20025;-63
2022/04/03 05:05:00;;;;;;;7.43;6.10;;;;;;;1.35;55.33;102285.84;5047837;28;20503;-63
2022/04/03 05:07:33;;;;;;;10.40;5.47;;;;;;;1.37;55.72;102293.91;5040073;28;20047;-62
2022/04/03 05:09:59;;;;;;;8.20;5.78;;;;;;;1.31;55.74;102281.72;5032498;28;20072;-63
2022/04/03 05:12:24;;;;;;;11.73;5.68;;;;;;;1.30;55.09;102284.59;5052647;28;20142;-62
2022/04/03 05:14:49;;;;;;;10.55;6.43;;;;;;;1.29;55.81;102283.75;5049637;28;20037;-62
2022/04/03 05:17:15;;;;;;;7.95;5.78;;;;;;;1.34;56.10;102288.75;5052870;28;20025;-62
2022/04/03 05:19:43;;;;;;;14.68;6.63;;;;;;;1.37;55.81;102293.91;5051598;28;20061;-62
2022/04/03 05:22:08;;;;;;;10.63;7.13;;;;;;;1.31;55.43;102292.66;5051509;28;20037;-62
2022/04/03 05:24:33;;;;;;;9.27;6.72;;;;;;;1.31;56.00;102300.00;5045823;28;20098;-62
2022/04/03 05:27:01;;;;;;;8.18;6.05;;;;;;;1.33;55.61;102298.81;5035103;28;20029;-62
2022/04/03 05:29:26;;;;;;;7.40;6.45;;;;;;;1.33;55.58;102289.75;5035779;28;20144;-62
2022/04/03 05:31:54;;;;;;;9.50;6.50;;;;;;;1.33;55.92;102287.88;5052648;28;20150;-62
2022/04/03 05:34:22;;;;;;;8.07;6.43;;;;;;;1.31;55.68;102294.53;5049700;28;20025;-63
2022/04/03 05:36:47;;;;;;;12.02;6.13;;;;;;;1.32;56.43;102305.31;5052644;28;20032;-62
2022/04/03 05:39:16;;;;;;;9.18;6.75;;;;;;;1.33;56.41;102304.28;5051421;28;20029;-62
2022/04/03 05:41:41;;;;;;;8.20;6.20;;;;;;;1.35;56.24;102304.16;5037549;28;20068;-62
2022/04/03 05:44:13;;;;;;;6.63;5.82;;;;;;;1.39;55.97;102305.56;5045025;28;20064;-61
2022/04/03 05:46:41;;;;;;;8.80;6.22;;;;;;;1.42;56.62;102311.56;5053372;28;20029;-62
2022/04/03 05:49:06;;;;;;;9.40;6.40;;;;;;;1.44;56.69;102315.00;5057633;28;20094;-62
2022/04/03 05:51:32;;;;;;;9.18;6.00;;;;;;;1.46;56.04;102312.13;5061246;28;20041;-62
2022/04/03 05:53:57;;;;;;;11.30;7.35;;;;;;;1.52;56.47;102316.09;5049734;28;20029;-62
2022/04/03 05:56:27;;;;;;;9.38;6.28;;;;;;;1.54;56.41;102320.41;5048975;28;20037;-62
2022/04/03 05:58:52;;;;;;;10.98;6.55;;;;;;;1.52;56.36;102308.75;5049359;28;20037;-63
2022/04/03 06:01:17;;;;;;;9.82;6.28;;;;;;;1.55;56.50;102313.06;5051721;28;20029;-62
2022/04/03 06:03:43;;;;;;;9.82;5.82;;;;;;;1.59;56.61;102322.66;5051418;28;20051;-62
2022/04/03 06:06:09;;;;;;;8.65;6.43;;;;;;;1.57;56.50;102311.88;5050737;28;20075;-62
2022/04/03 06:08:34;;;;;;;8.85;5.80;;;;;;;1.60;57.47;102314.28;5051277;28;20045;-62
2022/04/03 06:11:00;;;;;;;10.68;6.35;;;;;;;1.61;57.29;102326.06;5040816;28;20028;-62
2022/04/03 06:13:31;;;;;;;8.20;6.10;;;;;;;1.63;57.32;102319.44;5035262;28;20037;-62
2022/04/03 06:15:56;;;;;;;9.07;6.00;;;;;;;1.65;56.92;102322.91;5048063;28;20033;-62
2022/04/03 06:18:24;;;;;;;9.02;5.93;;;;;;;1.70;56.99;102323.28;5035721;28;20124;-61
2022/04/03 06:20:51;;;;;;;8.70;6.15;;;;;;;1.72;57.42;102323.94;5045174;28;20132;-62
2022/04/03 06:23:20;;;;;;;9.93;7.20;;;;;;;1.75;57.77;102330.16;5052705;28;20519;-62
2022/04/03 06:25:48;;;;;;;8.45;6.63;;;;;;;1.78;57.68;102329.84;5050729;28;20033;-62
2022/04/03 06:28:16;;;;;;;8.18;6.30;;;;;;;1.81;57.80;102326.75;5052156;28;20430;-62
2022/04/03 06:30:42;;;;;;;9.93;6.72;;;;;;;1.80;57.89;102325.03;5050671;28;20464;-62
2022/04/03 06:33:07;;;;;;;11.40;6.50;;;;;;;1.83;57.89;102330.19;5052465;28;20063;-62
2022/04/03 06:35:32;;;;;;;11.55;6.35;;;;;;;1.85;57.94;102322.72;5046023;28;20021;-63
2022/04/03 06:38:03;;;;;;;13.10;7.13;;;;;;;1.86;57.93;102322.53;5048508;28;20439;-62
2022/04/03 06:40:29;;;;;;;9.88;7.30;;;;;;;1.87;58.33;102317.91;5039670;28;20029;-62
2022/04/03 06:42:57;;;;;;;12.82;7.60;;;;;;;1.89;58.29;102316.75;5050969;28;20036;-62
2022/04/03 06:45:24;;;;;;;9.48;7.30;;;;;;;1.97;58.12;102321.41;5046026;28;20052;-61
2022/04/03 06:47:49;;;;;;;10.30;7.28;;;;;;;2.01;58.56;102319.22;5049459;28;20507;-62
2022/04/03 06:50:14;;;;;;;11.27;7.22;;;;;;;2.08;57.94;102323.88;5039395;28;20033;-62
2022/04/03 06:52:40;;;;;;;12.52;8.13;;;;;;;2.15;58.58;102327.69;5049460;28;20017;-61
2022/04/03 06:55:06;;;;;;;11.52;8.60;;;;;;;2.24;58.04;102327.72;5049387;28;20473;-61
2022/04/03 06:57:32;;;;;;;11.20;8.30;;;;;;;2.29;58.19;102315.28;5043916;28;20033;-63
2022/04/03 06:59:58;;;;;;;12.73;7.50;;;;;;;2.39;57.71;102326.97;5039546;28;20028;-61
2022/04/03 07:02:24;;;;;;;8.82;6.93;;;;;;;2.45;58.78;102325.47;5047901;28;20031;-61
2022/04/03 07:04:52;;;;;;;14.18;8.85;;;;;;;2.51;58.98;102319.31;5050269;28;20040;-61
2022/04/03 07:07:24;;;;;;;15.02;9.10;;;;;;;2.58;58.15;102320.38;5049704;28;20068;-61
2022/04/03 07:09:50;;;;;;;;;;;;;;;2.79;56.61;102330.03;5051485;28;20095;-61
2022/04/03 07:12:15;;;;;;;11.70;8.10;;;;;;;2.78;58.67;102329.19;5048631;28;20363;-63
2022/04/03 07:14:41;;;;;;;10.00;8.43;;;;;;;2.84;58.75;102331.28;5051879;28;20111;-61
2022/04/03 07:17:06;;;;;;;11.20;8.25;;;;;;;2.92;58.05;102331.31;5052416;28;20772;-62
2022/04/03 07:19:33;;;;;;;14.20;8.68;;;;;;;2.97;58.29;102336.28;5051324;28;20455;-62
2022/04/03 07:21:59;;;;;;;13.32;8.65;;;;;;;2.98;58.45;102329.78;5051428;28;20021;-64
2022/04/03 07:24:25;;;;;;;12.80;9.15;;;;;;;3.06;58.52;102327.03;5052148;28;20098;-62
2022/04/03 07:26:54;;;;;;;16.42;9.48;;;;;;;3.19;58.29;102330.19;5050922;28;20163;-63
2022/04/03 07:29:21;;;;;;;11.55;8.68;;;;;;;3.31;59.00;102335.34;5049731;28;20108;-62
2022/04/03 07:31:46;;;;;;;13.90;8.45;;;;;;;3.38;58.58;102336.38;5051213;28;20100;-62
2022/04/03 07:34:12;;;;;;;14.38;9.00;;;;;;;3.53;58.90;102331.94;5047827;28;20511;-62
2022/04/03 07:36:37;;;;;;;12.85;8.75;;;;;;;3.68;58.99;102345.84;5050136;28;20021;-63
2022/04/03 07:39:03;;;;;;;10.77;8.25;;;;;;;3.81;59.33;102337.97;5050099;28;20480;-62
2022/04/03 07:41:31;;;;;;;11.00;8.50;;;;;;;3.93;59.42;102332.97;5049683;28;20380;-63
2022/04/03 07:43:56;;;;;;;13.18;9.00;;;;;;;4.07;59.05;102334.16;5050297;28;20032;-63
2022/04/03 07:46:22;;;;;;;10.13;8.25;;;;;;;4.21;58.86;102341.69;5052094;28;20437;-63
2022/04/03 07:48:47;;;;;;;11.40;8.43;;;;;;;4.33;58.71;102344.94;5050864;28;20040;-63
2022/04/03 07:51:13;;;;;;;9.00;7.72;;;;;;;4.49;58.39;102342.13;5033945;28;20025;-62
2022/04/03 07:53:38;;;;;;;10.18;8.18;;;;;;;4.62;57.92;102333.31;5050428;28;20028;-64
2022/04/03 07:56:05;;;;;;;9.65;7.63;;;;;;;4.78;57.90;102340.63;5048617;28;20041;-63
2022/04/03 07:58:35;;;;;;;11.05;7.93;;;;;;;4.92;57.36;102337.16;5052062;28;20086;-64
2022/04/03 08:01:01;;;;;;;9.68;7.28;;;;;;;5.06;56.73;102333.63;5052141;28;20120;-62
2022/04/03 08:03:26;;;;;;;10.30;7.30;;;;;;;5.15;56.65;102339.97;5050945;28;20178;-64
2022/04/03 08:05:52;;;;;;;8.82;7.35;;;;;;;5.27;56.74;102332.16;5042429;28;20400;-64
2022/04/03 08:08:18;;;;;;;9.15;7.30;;;;;;;5.40;56.57;102335.13;5052247;28;20029;-64
2022/04/03 08:10:46;;;;;;;10.35;6.43;;;;;;;5.55;55.93;102338.81;5048029;28;20060;-64
2022/04/03 08:13:12;;;;;;;7.88;6.20;;;;;;;5.69;55.37;102337.16;5043359;28;20040;-64
2022/04/03 08:15:37;;;;;;;12.00;7.47;;;;;;;5.85;54.24;102337.00;5039957;28;20025;-63
2022/04/03 08:18:02;;;;;;;7.72;4.72;;;;;;;6.02;53.73;102334.16;5031715;28;20026;-64
2022/04/03 08:20:28;;;;;;;6.80;4.57;;;;;;;6.18;52.94;102339.50;5042417;28;20033;-61
2022/04/03 08:22:53;;;;;;;5.40;4.15;;;;;;;6.31;51.55;102344.38;5048459;28;20048;-61
2022/04/03 08:25:18;;;;;;;5.35;4.00;;;;;;;6.41;49.85;102341.34;5036979;28;20022;-63
2022/04/03 08:27:47;;;;;;;4.00;3.13;;;;;;;6.53;49.99;102346.19;5045779;28;20025;-62
2022/04/03 08:30:15;;;;;;;5.22;2.97;;;;;;;6.67;50.14;102340.84;5030830;28;20619;-62
2022/04/03 08:32:42;;;;;;;5.40;2.80;;;;;;;6.74;49.13;102347.31;5041201;28;20438;-62
2022/04/03 08:35:08;;;;;;;5.75;2.70;;;;;;;6.86;49.02;102351.31;5036076;28;20476;-62
2022/04/03 08:37:34;;;;;;;3.30;3.03;;;;;;;6.98;48.63;102343.41;5036547;28;20025;-62
2022/04/03 08:39:59;;;;;;;4.00;3.05;;;;;;;7.06;48.26;102348.81;5047077;28;20472;-62
2022/04/03 08:42:26;;;;;;;6.13;2.67;;;;;;;7.16;48.79;102341.09;5051607;28;20021;-62
2022/04/03 08:44:52;;;;;;;5.00;2.58;;;;;;;7.22;47.94;102344.97;5052804;28;20135;-63
2022/04/03 08:47:22;;;;;;;3.55;2.63;;;;;;;7.31;47.30;102344.66;5038157;28;20106;-62
2022/04/03 08:49:47;;;;;;;6.70;3.13;;;;;;;7.67;52.58;102348.44;5036440;28;20056;-63
2022/04/03 08:52:13;;;;;;;5.35;2.80;;;;;;;7.79;47.61;102344.94;5046231;28;20110;-61
2022/04/03 08:54:38;;;;;;;3.80;2.50;;;;;;;7.85;47.14;102343.28;5056727;28;20099;-61
2022/04/03 08:57:04;;;;;;;7.57;2.58;;;;;;;7.94;46.99;102344.88;5055338;28;20128;-61
2022/04/03 08:59:36;;;;;;;4.75;2.80;;;;;;;8.06;47.01;102347.94;5052899;28;20671;-61
2022/04/03 09:02:01;;;;;;;5.57;2.80;;;;;;;8.10;46.63;102343.72;5047577;28;20021;-62
2022/04/03 09:04:30;;;;;;;5.30;2.70;;;;;;;7.94;45.74;102339.34;5049728;28;20154;-61
2022/04/03 09:06:58;;;;;;;5.05;2.80;;;;;;;7.89;45.67;102344.59;5045027;28;20048;-62
2022/04/03 09:09:27;;;;;;;5.70;2.80;;;;;;;7.96;46.48;102347.41;5049997;28;20029;-62
2022/04/03 09:12:15;;;;;;;5.72;2.90;;;;;;;8.10;47.53;102349.25;5046842;28;20036;-61
2022/04/03 09:14:56;;;;;;;3.75;2.58;;;;;;;8.21;47.05;102340.38;5043410;28;20097;-60
2022/04/03 09:17:37;;;;;;;6.60;2.80;;;;;;;8.34;46.77;102339.66;5041818;28;20025;-60
2022/04/03 09:20:06;;;;;;;5.00;2.80;;;;;;;8.50;45.98;102342.13;5049143;28;20140;-59
2022/04/03 09:22:35;;;;;;;4.35;3.28;;;;;;;8.52;46.55;102337.22;5052717;28;20032;-60
2022/04/03 09:25:04;;;;;;;5.22;2.83;;;;;;;8.56;44.78;102323.84;5048655;28;20783;-60
2022/04/03 09:27:41;;;;;;;8.07;2.53;;;;;;;8.39;44.85;102323.31;5053649;28;20033;-61
2022/04/03 09:30:08;;;;;;;5.05;2.78;;;;;;;8.32;44.98;102333.44;5048425;28;20486;-60
2022/04/03 09:32:34;;;;;;;3.47;2.80;;;;;;;8.32;45.26;102327.91;5049038;28;20049;-60
2022/04/03 09:35:00;;;;;;;4.00;2.40;;;;;;;8.27;45.43;102323.00;5048597;28;20024;-60
2022/04/03 09:37:26;;;;;;;4.63;3.15;;;;;;;8.38;45.89;102326.31;5050350;28;20112;-61
2022/04/03 09:39:52;;;;;;;4.40;2.80;;;;;;;8.42;45.04;102328.47;5052720;28;20032;-60
2022/04/03 09:42:18;;;;;;;4.05;2.90;;;;;;;8.59;45.49;102327.06;5053313;28;20025;-60
2022/04/03 09:44:45;;;;;;;3.13;1.92;;;;;;;8.69;43.62;102323.94;5052990;28;20095;-60
2022/04/03 09:47:19;;;;;;;3.40;2.03;;;;;;;8.77;43.48;102322.91;5044069;28;20032;-60
2022/04/03 09:49:59;;;;;;;3.72;1.60;;;;;;;8.66;42.61;102315.19;5045926;28;20040;-61
2022/04/03 09:52:51;;;;;;;2.45;1.50;;;;;;;8.51;44.09;102323.59;5049770;28;20531;-61
2022/04/03 09:55:22;;;;;;;2.28;1.50;;;;;;;8.36;42.49;102318.16;5051279;28;20028;-61
2022/04/03 09:57:50;;;;;;;3.90;1.75;;;;;;;8.39;43.52;102312.25;5051764;28;20056;-62
2022/04/03 10:00:29;;;;;;;3.70;2.20;;;;;;;8.53;44.38;102304.91;5048914;28;20019;-61
2022/04/03 10:03:00;;;;;;;2.78;1.80;;;;;;;8.62;42.62;102298.13;5046111;28;20036;-62
2022/04/03 10:05:28;;;;;;;2.88;1.70;;;;;;;8.75;42.91;102302.88;5052349;28;20471;-62
2022/04/03 10:07:59;;;;;;;3.47;1.88;;;;;;;8.87;41.68;102295.69;5044848;28;20033;-61
2022/04/03 10:10:26;;;;;;;3.22;1.60;;;;;;;9.00;42.87;102286.56;5044672;28;20079;-62
2022/04/03 10:12:53;;;;;;;5.03;1.75;;;;;;;9.10;42.59;102281.50;5049503;28;20040;-61
2022/04/03 10:15:19;;;;;;;3.78;1.98;;;;;;;9.15;42.18;102272.56;5051070;28;20040;-62
2022/04/03 10:17:44;;;;;;;3.17;1.60;;;;;;;9.29;42.46;102280.69;5050649;28;20029;-62
2022/04/03 10:20:10;;;;;;;3.53;1.50;;;;;;;9.26;41.23;102274.72;5050183;28;20438;-62
2022/04/03 10:22:39;;;;;;;4.18;1.95;;;;;;;9.11;41.30;102280.41;5049756;28;20033;-62
2022/04/03 10:25:11;;;;;;;4.43;1.88;;;;;;;8.91;40.29;102285.91;5050894;28;20070;-62
2022/04/03 10:27:39;;;;;;;3.75;1.85;;;;;;;8.77;41.27;102279.47;5050808;28;20479;-63
2022/04/03 10:30:06;;;;;;;2.60;1.30;;;;;;;8.71;40.67;102282.19;5047320;28;20540;-63
2022/04/03 10:32:51;;;;;;;5.20;1.90;;;;;;;8.74;41.96;102279.88;5050005;28;20037;-62
2022/04/03 10:35:21;;;;;;;1.98;1.70;;;;;;;8.90;41.98;102275.88;5049320;28;20029;-61
2022/04/03 10:37:46;;;;;;;2.30;1.73;;;;;;;9.05;41.82;102257.19;5048421;28;20029;-62
2022/04/03 10:40:16;;;;;;;3.08;1.60;;;;;;;9.17;39.90;102268.53;5051951;28;20384;-62
2022/04/03 10:42:50;;;;;;;1.65;1.50;;;;;;;9.13;40.92;102278.31;5043470;28;20115;-62
2022/04/03 10:45:19;;;;;;;3.65;1.63;;;;;;;8.97;40.41;102279.53;5050206;28;20531;-62
2022/04/03 10:47:45;;;;;;;2.83;1.70;;;;;;;8.88;40.25;102269.69;5048890;28;20021;-63
2022/04/03 10:50:17;;;;;;;5.10;1.88;;;;;;;8.84;41.28;102266.50;5051776;28;20036;-62
2022/04/03 10:52:42;;;;;;;2.80;1.60;;;;;;;8.80;42.19;102261.56;5051474;28;20037;-63
2022/04/03 10:55:15;;;;;;;3.63;1.88;;;;;;;8.95;41.88;102259.50;5045981;28;20085;-63
2022/04/03 10:57:40;;;;;;;;;;;;;;;9.04;42.65;102261.03;5050786;28;20033;-59
2022/04/03 11:00:12;;;;;;;2.03;1.60;;;;;;;8.98;42.36;102261.00;5045662;28;19936;-61
2022/04/03 11:02:40;;;;;;;4.40;1.65;;;;;;;8.87;42.39;102254.16;5050059;28;20033;-61
2022/04/03 11:05:24;;;;;;;3.60;1.92;;;;;;;8.82;42.81;102254.78;5053017;28;20045;-61
2022/04/03 11:07:50;;;;;;;3.80;2.05;;;;;;;8.73;42.21;102253.25;5051568;28;20067;-60
2022/04/03 11:10:57;;;;;;;2.60;1.90;;;;;;;8.68;43.24;102257.69;5041797;28;20021;-61
2022/04/03 11:13:28;;;;;;;2.85;1.80;;;;;;;8.63;42.97;102255.53;5048650;28;20037;-61
2022/04/03 11:15:54;;;;;;;2.65;1.50;;;;;;;8.59;42.15;102251.47;5044728;28;20017;-61
2022/04/03 11:18:33;;;;;;;2.80;1.58;;;;;;;8.63;41.89;102255.53;5050923;28;20025;-61
2022/04/03 11:21:18;;;;;;;3.45;1.90;;;;;;;8.69;43.00;102253.88;5041981;28;20032;-62
2022/04/03 11:23:50;;;;;;;3.38;1.75;;;;;;;8.67;41.64;102244.91;5048627;28;20094;-61
2022/04/03 11:26:16;;;;;;;6.03;1.80;;;;;;;8.60;42.10;102240.19;5044576;28;20823;-59
2022/04/03 11:28:43;;;;;;;3.25;1.70;;;;;;;8.59;42.25;102238.50;5045668;28;20033;-60
2022/04/03 11:31:09;;;;;;;4.18;2.17;;;;;;;8.62;42.96;102240.00;5045696;28;20036;-59
2022/04/03 11:33:36;;;;;;;3.35;1.77;;;;;;;8.52;42.17;102237.59;5051123;28;20021;-59